CDT,Max TemperatureF,Mean TemperatureF,Min TemperatureF,Max Dew PointF,MeanDew PointF,Min DewpointF,Max Humidity, Mean Humidity, Min Humidity, Max Sea Level PressureIn, Mean Sea Level PressureIn, Min Sea Level PressureIn, Max VisibilityMiles, Mean VisibilityMiles, Min VisibilityMiles, Max Wind SpeedMPH, Mean Wind SpeedMPH, Max Gust SpeedMPH,PrecipitationIn, CloudCover, Events, WindDirDegrees
2013-7-1,83,70,56,49,45,40,72,48,24,30.19,30.14,30.09,10,9,5,17,8,23,0.00,1,,64
2013-7-2,84,67,50,45,38,32,64,40,16,30.19,30.12,30.04,10,9,5,15,6,17,0.00,0,,92
2013-7-3,89,75,60,46,42,37,55,36,17,30.07,29.96,29.86,10,10,8,21,12,30,T,2,,177
2013-7-4,93,76,58,48,47,44,67,44,20,29.91,29.85,29.78,10,10,8,24,14,44,0.00,0,,168
2013-7-5,99,83,67,51,48,46,52,35,18,29.81,29.74,29.65,10,10,10,31,17,39,0.00,0,,171
2013-7-6,101,87,73,55,49,46,38,29,19,29.79,29.70,29.66,10,10,10,28,16,38,0.00,0,,189
2013-7-7,100,86,72,56,51,46,47,34,20,29.88,29.81,29.77,10,10,6,24,13,30,0.00,2,,184
2013-7-8,102,87,72,56,53,50,57,38,19,29.93,29.88,29.82,10,10,10,28,13,36,0.00,0,,182
2013-7-9,106,90,74,64,56,50,56,37,17,29.97,29.88,29.82,10,10,9,31,10,44,0.01,0,Rain,207
2013-7-10,99,83,67,68,62,55,84,55,25,30.11,29.97,29.88,10,10,5,36,12,48,T,0,,67
2013-7-11,96,82,67,63,58,53,68,47,26,30.06,29.91,29.81,10,10,10,31,12,39,0.00,0,Rain,180
2013-7-12,104,88,71,62,57,51,68,43,18,29.87,29.82,29.75,10,10,10,30,17,38,0.00,0,,167
2013-7-13,105,89,73,59,54,48,61,39,16,29.88,29.83,29.76,10,10,10,25,13,31,0.00,0,,175
2013-7-14,83,73,62,62,57,49,87,59,31,30.09,29.92,29.81,10,10,8,26,13,32,T,3,Rain,147
2013-7-15,83,70,56,63,56,45,100,64,28,30.20,30.13,30.04,10,6,0,25,10,30,0.00,4,Fog,70
2013-7-16,75,69,63,66,63,60,93,81,68,30.27,30.22,30.10,10,7,1,28,12,32,0.14,7,Rain,154
2013-7-17,87,74,61,66,63,59,100,71,42,30.37,30.26,30.15,10,8,2,24,11,32,0.12,5,Rain,166
2013-7-18,89,77,64,66,62,58,100,68,36,30.20,30.06,29.91,10,9,5,29,16,36,0.00,2,,181
2013-7-19,96,82,68,66,62,57,84,56,27,29.96,29.88,29.79,10,10,6,31,13,40,0.07,1,Rain,173
2013-7-20,90,78,66,66,64,58,93,65,36,30.04,29.87,29.77,10,10,8,25,7,31,0.08,3,Rain-Thunderstorm,81
2013-7-21,95,80,65,70,65,61,100,67,33,29.93,29.82,29.71,10,7,0,18,9,23,T,2,Fog,92
2013-7-22,104,87,70,62,55,46,66,41,15,29.80,29.74,29.68,10,10,10,29,12,33,0.00,0,,184
2013-7-23,104,88,71,68,61,48,73,45,16,29.88,29.77,29.70,10,10,10,33,12,38,0.00,0,,170
2013-7-24,92,79,66,64,61,49,93,58,23,30.17,30.02,29.90,10,9,3,17,9,22,0.00,3,,89
2013-7-25,91,79,67,66,63,58,93,64,34,30.08,29.97,29.84,10,9,0,35,15,48,0.56,4,Fog-Rain-Thunderstorm,128
2013-7-26,85,75,64,66,60,51,100,66,32,30.20,30.08,29.98,10,10,7,22,11,29,T,4,Rain,34
2013-7-27,91,76,61,65,60,57,97,66,34,30.10,29.95,29.81,10,10,6,30,15,37,0.01,1,,149
2013-7-28,83,73,62,66,61,58,93,69,45,29.98,29.90,29.83,10,9,4,24,16,30,0.05,5,Rain,108
2013-7-29,91,79,66,69,65,59,93,69,44,30.05,29.88,29.78,10,9,4,26,10,33,0.02,5,,132
2013-7-30,86,77,68,70,65,59,97,69,40,30.15,30.05,29.96,10,7,2,13,8,20,0.00,5,,40
2013-7-31,94,80,65,68,64,57,100,71,41,30.24,30.13,30.02,10,6,0,44,9,54,0.47,4,Fog-Rain,122